Terminal Aerodrome Forecast
Issued by NWS

Home | Current Version | Previous Version | Text Only | Print | Product List | Glossary On
Versions: 1 2 3 4 5 6 7 8 9 10 11 12 13 14 15 16 17 18 19 20 21
000
FTUS45 KREV 271100
TAFTVL
TAF
KTVL 271132Z 2712/2812 VRB03KT P6SM SCT040 OVC080
     FM271600 VRB04KT 6SM -RASN SCT020 OVC040
      TEMPO 2716/2720 3SM -SNRA BKN015 OVC030
     FM272100 20005KT P6SM VCSH BKN040 OVC070
     FM280100 VRB03KT P6SM SCT030 OVC060=

USA.gov is the U.S. government's official web portal to all federal, state and local government web resources and services.